Terminal Aerodrome Forecast
Issued by NWS Corpus Christi, TX

Home | Current Version | Previous Version | Text Only | Print | Product List | Glossary On
Versions: 1 2 3 4 5 6 7 8 9 10 11 12
000
FTUS44 KCRP 311723
TAFVCT
TAF
KVCT 311723Z 3118/0118 06003KT P6SM VCTS SCT035CB BKN250
      TEMPO 3118/3121 VRB15G25KT 3SM TSRA BKN030CB
     FM010000 14008KT P6SM SCT050 BKN250
     FM010700 09002KT P6SM SCT009 BKN020 OVC200
      TEMPO 0110/0113 5SM BR BKN009 OVC020
     FM011400 14008KT P6SM VCTS BKN025CB PROB30 0116/0118 VRB15G20KT
      5SM TSRA OVC020CB=

USA.gov is the U.S. government's official web portal to all federal, state and local government web resources and services.